createdAt,value
2017-10-21T00:02:08.286Z,59.00
2017-10-21T00:04:35.882Z,59.00
2017-10-21T00:07:03.358Z,59.00
2017-10-21T00:09:30.812Z,58.90
2017-10-21T00:11:58.325Z,58.90
2017-10-21T00:14:25.769Z,59.00
2017-10-21T00:16:53.225Z,58.90
2017-10-21T00:19:20.767Z,58.90
2017-10-21T00:21:49.014Z,58.80
2017-10-21T00:24:16.469Z,58.80
2017-10-21T00:26:43.925Z,58.80
2017-10-21T00:29:11.394Z,58.80
2017-10-21T00:31:38.866Z,58.70
2017-10-21T00:34:07.098Z,58.80
2017-10-21T00:36:34.550Z,58.80
2017-10-21T00:39:02.030Z,58.80
2017-10-21T00:41:29.514Z,58.80
2017-10-21T00:43:57.730Z,58.90
2017-10-21T00:46:25.269Z,58.80
2017-10-21T00:48:52.770Z,58.80
2017-10-21T00:51:20.226Z,58.70
2017-10-21T00:53:47.673Z,58.70
2017-10-21T00:56:15.157Z,58.70
2017-10-21T00:58:42.621Z,58.60
2017-10-21T01:01:10.103Z,58.60
2017-10-21T01:03:39.258Z,58.60
2017-10-21T01:06:06.718Z,58.60
2017-10-21T01:08:34.257Z,58.40
2017-10-21T01:11:01.754Z,58.50
2017-10-21T01:13:29.240Z,58.50
2017-10-21T01:15:56.688Z,58.40
2017-10-21T01:18:24.168Z,58.50
2017-10-21T01:20:51.646Z,58.40
2017-10-21T01:23:21.100Z,58.40
2017-10-21T01:25:48.817Z,58.40
2017-10-21T01:28:16.734Z,58.40
2017-10-21T01:30:44.177Z,58.40
2017-10-21T01:33:11.628Z,58.80
2017-10-21T01:35:40.525Z,58.40
2017-10-21T01:38:07.985Z,58.40
2017-10-21T01:40:35.477Z,58.30
2017-10-21T01:43:03.709Z,58.30
2017-10-21T01:45:31.207Z,58.30
2017-10-21T01:47:59.429Z,58.50
2017-10-21T01:50:26.889Z,58.40
2017-10-21T01:52:54.371Z,58.40
2017-10-21T01:55:21.834Z,58.40
2017-10-21T01:57:49.292Z,58.50
2017-10-21T02:00:16.766Z,58.50
2017-10-21T02:02:45.013Z,58.60
2017-10-21T02:05:12.470Z,58.50
2017-10-21T02:07:40.348Z,58.50
2017-10-21T02:10:07.831Z,58.50
2017-10-21T02:12:36.057Z,58.60
2017-10-21T02:15:03.544Z,58.60
2017-10-21T02:17:31.006Z,58.70
2017-10-21T02:19:58.466Z,58.80
2017-10-21T02:22:25.937Z,58.80
2017-10-21T02:24:53.406Z,58.90
2017-10-21T02:27:20.891Z,58.90
2017-10-21T02:29:48.366Z,59.00
2017-10-21T02:32:15.842Z,59.00
2017-10-21T02:34:43.293Z,58.90
2017-10-21T02:37:10.782Z,58.90
2017-10-21T02:39:38.242Z,59.00
2017-10-21T02:42:05.718Z,59.00
2017-10-21T02:44:33.174Z,59.00
2017-10-21T02:47:00.682Z,59.00
2017-10-21T02:49:28.137Z,58.90
2017-10-21T02:51:55.598Z,59.00
2017-10-21T02:54:23.078Z,59.00
2017-10-21T02:56:50.564Z,59.00
2017-10-21T02:59:18.795Z,59.00
2017-10-21T03:01:46.283Z,59.00
2017-10-21T03:04:13.795Z,59.00
2017-10-21T03:06:41.245Z,59.00
2017-10-21T03:09:08.706Z,59.00
2017-10-21T03:11:36.168Z,59.00
2017-10-21T03:14:03.627Z,59.00
2017-10-21T03:16:31.110Z,59.10
2017-10-21T03:18:58.569Z,59.10
2017-10-21T03:21:26.062Z,59.20
2017-10-21T03:23:53.573Z,59.20
2017-10-21T03:26:21.054Z,59.10
2017-10-21T03:28:48.543Z,59.10
2017-10-21T03:31:16.003Z,59.10
2017-10-21T03:33:43.452Z,59.20
2017-10-21T03:36:12.490Z,59.30
2017-10-21T03:38:40.013Z,59.30
2017-10-21T03:41:07.503Z,59.20
2017-10-21T03:43:34.953Z,59.30
2017-10-21T03:46:02.446Z,59.30
2017-10-21T03:48:29.894Z,59.30
2017-10-21T03:50:57.348Z,59.40
2017-10-21T03:53:24.823Z,59.50
2017-10-21T03:55:52.298Z,59.60
2017-10-21T03:58:19.758Z,59.50
2017-10-21T04:00:48.022Z,59.50
2017-10-21T04:03:15.478Z,59.50
2017-10-21T04:05:42.950Z,59.60
2017-10-21T04:08:10.429Z,59.60
2017-10-21T04:10:37.883Z,59.80
2017-10-21T04:13:06.121Z,60.70
2017-10-21T04:15:33.582Z,59.90
2017-10-21T04:18:01.041Z,59.90
2017-10-21T04:20:28.510Z,59.80
2017-10-21T04:22:55.995Z,59.90
2017-10-21T04:25:23.457Z,59.80
2017-10-21T04:27:50.943Z,59.80
2017-10-21T04:30:18.453Z,59.90
2017-10-21T04:32:46.673Z,60.00
2017-10-21T04:35:14.150Z,59.90
2017-10-21T04:37:41.629Z,60.00
2017-10-21T04:40:09.113Z,60.10
2017-10-21T04:42:37.381Z,60.10
2017-10-21T04:45:05.596Z,60.20
2017-10-21T04:47:33.049Z,60.00
2017-10-21T04:50:00.525Z,60.00
2017-10-21T04:52:28.002Z,60.00
2017-10-21T04:54:56.261Z,59.90
2017-10-21T04:57:23.760Z,59.90
2017-10-21T04:59:51.213Z,60.00
2017-10-21T05:02:18.701Z,60.90
2017-10-21T05:04:46.166Z,60.50
2017-10-21T05:07:13.641Z,60.30
2017-10-21T05:09:41.124Z,60.30
2017-10-21T05:12:08.644Z,60.30
2017-10-21T05:14:36.109Z,60.30
2017-10-21T05:17:03.574Z,60.20
2017-10-21T05:19:31.050Z,60.30
2017-10-21T05:21:58.533Z,60.00
2017-10-21T05:24:25.984Z,60.00
2017-10-21T05:26:53.442Z,60.00
2017-10-21T05:29:20.934Z,60.00
2017-10-21T05:31:49.337Z,59.90
2017-10-21T05:34:16.826Z,59.80
2017-10-21T05:36:44.302Z,59.80
2017-10-21T05:39:11.749Z,59.80
2017-10-21T05:41:39.229Z,59.70
2017-10-21T05:44:06.704Z,59.80
2017-10-21T05:46:34.953Z,59.80
2017-10-21T05:49:03.173Z,59.80
2017-10-21T05:51:30.662Z,59.70
2017-10-21T05:53:58.135Z,59.70
2017-10-21T05:56:25.606Z,59.90
2017-10-21T05:58:53.103Z,59.90
2017-10-21T06:01:20.562Z,59.90
2017-10-21T06:03:48.057Z,59.80
2017-10-21T06:06:15.553Z,59.80
2017-10-21T06:08:44.741Z,59.80
2017-10-21T06:11:12.254Z,59.80
2017-10-21T06:13:39.712Z,59.80
2017-10-21T06:16:07.208Z,59.80
2017-10-21T06:18:34.705Z,59.90
2017-10-21T06:21:02.209Z,59.90
2017-10-21T06:23:29.704Z,59.90
2017-10-21T06:25:57.926Z,59.90
2017-10-21T06:28:25.392Z,59.90
2017-10-21T06:30:52.868Z,59.90
2017-10-21T06:33:20.339Z,59.90
2017-10-21T06:35:47.812Z,59.80
2017-10-21T06:38:16.086Z,59.80
2017-10-21T06:40:43.537Z,59.80
2017-10-21T06:43:10.985Z,60.60
2017-10-21T06:45:38.493Z,59.90
2017-10-21T06:48:05.986Z,59.80
2017-10-21T06:50:33.481Z,59.90
2017-10-21T06:53:00.971Z,59.90
2017-10-21T06:55:28.440Z,59.80
2017-10-21T06:57:55.921Z,59.90
2017-10-21T07:00:23.382Z,59.90
2017-10-21T07:02:50.950Z,60.40
2017-10-21T07:05:18.399Z,60.70
2017-10-21T07:07:45.887Z,61.00
2017-10-21T07:10:13.373Z,61.10
2017-10-21T07:12:40.851Z,61.40
2017-10-21T07:15:08.328Z,61.40
2017-10-21T07:17:35.800Z,61.70
2017-10-21T07:20:03.307Z,61.90
2017-10-21T07:22:30.785Z,62.10
2017-10-21T07:24:59.699Z,62.30
2017-10-21T07:27:27.265Z,62.30
2017-10-21T07:29:54.909Z,62.60
2017-10-21T07:32:22.535Z,62.80
2017-10-21T07:34:50.269Z,62.80
2017-10-21T07:37:17.954Z,63.10
2017-10-21T07:39:46.552Z,63.50
2017-10-21T07:42:14.124Z,63.70
2017-10-21T07:44:41.582Z,63.90
2017-10-21T07:47:09.078Z,64.20
2017-10-21T07:49:37.622Z,64.30
2017-10-21T07:52:05.090Z,64.70
2017-10-21T07:54:32.574Z,64.90
2017-10-21T07:57:00.044Z,65.40
2017-10-21T07:59:27.592Z,65.50
2017-10-21T08:01:55.077Z,65.70
2017-10-21T08:04:22.628Z,65.80
2017-10-21T08:06:50.108Z,66.00
2017-10-21T08:09:17.601Z,66.10
2017-10-21T08:11:45.229Z,66.20
2017-10-21T08:14:13.469Z,66.40
2017-10-21T08:16:41.271Z,66.40
2017-10-21T08:19:09.050Z,66.70
2017-10-21T08:21:36.706Z,66.80
2017-10-21T08:24:05.186Z,67.00
2017-10-21T08:26:33.445Z,67.00
2017-10-21T08:29:01.068Z,67.00
2017-10-21T08:31:28.597Z,67.10
2017-10-21T08:33:56.193Z,67.10
2017-10-21T08:36:23.710Z,67.10
2017-10-21T08:38:52.201Z,67.10
2017-10-21T08:41:20.101Z,67.10
2017-10-21T08:43:47.952Z,67.30
2017-10-21T08:46:15.590Z,67.20
2017-10-21T08:48:43.148Z,67.20
2017-10-21T08:51:10.835Z,67.40
2017-10-21T08:53:38.356Z,67.40
2017-10-21T08:56:06.699Z,67.90
2017-10-21T08:58:34.153Z,68.40
2017-10-21T09:01:01.687Z,67.70
2017-10-21T09:03:29.452Z,67.60
2017-10-21T09:05:57.989Z,67.70
2017-10-21T09:08:25.500Z,67.80
2017-10-21T09:10:53.112Z,67.80
2017-10-21T09:13:20.692Z,67.80
2017-10-21T09:15:48.334Z,68.10
2017-10-21T09:18:17.017Z,68.30
2017-10-21T09:20:44.541Z,68.30
2017-10-21T09:23:13.108Z,68.40
2017-10-21T09:25:40.710Z,68.50
2017-10-21T09:28:08.487Z,68.60
2017-10-21T09:30:36.009Z,68.80
2017-10-21T09:33:04.793Z,68.90
2017-10-21T09:35:32.417Z,69.00
2017-10-21T09:38:01.037Z,69.20
2017-10-21T09:40:28.705Z,69.10
2017-10-21T09:42:57.161Z,69.30
2017-10-21T09:45:25.426Z,69.30
2017-10-21T09:47:52.897Z,69.30
2017-10-21T09:50:20.541Z,69.50
2017-10-21T09:52:48.752Z,69.50
2017-10-21T09:55:16.278Z,69.70
2017-10-21T09:57:44.307Z,69.50
2017-10-21T10:00:12.999Z,69.50
2017-10-21T10:02:40.484Z,69.60
2017-10-21T10:05:08.340Z,69.70
2017-10-21T10:07:36.352Z,69.90
2017-10-21T10:10:04.210Z,70.00
2017-10-21T10:12:32.144Z,70.20
2017-10-21T10:14:59.742Z,70.10
2017-10-21T10:17:28.258Z,70.00
2017-10-21T10:19:55.953Z,70.00
2017-10-21T10:22:23.797Z,69.80
2017-10-21T10:24:51.675Z,69.80
2017-10-21T10:27:20.131Z,69.50
2017-10-21T10:29:51.001Z,69.30
2017-10-21T10:32:20.011Z,69.10
2017-10-21T10:34:48.534Z,68.60
2017-10-21T10:37:16.744Z,68.60
2017-10-21T10:39:46.461Z,68.60
2017-10-21T10:42:14.270Z,68.50
2017-10-21T10:44:42.818Z,68.10
2017-10-21T10:47:10.346Z,68.00
2017-10-21T10:49:37.927Z,68.00
2017-10-21T10:52:05.448Z,68.00
2017-10-21T10:54:33.548Z,68.00
2017-10-21T10:57:01.594Z,67.80
2017-10-21T10:59:29.109Z,67.70
2017-10-21T11:01:56.567Z,67.80
2017-10-21T11:04:24.026Z,68.10
2017-10-21T11:09:25.394Z,67.80
2017-10-21T11:11:52.876Z,67.60
2017-10-21T11:14:20.390Z,67.30
2017-10-21T11:16:47.842Z,67.00
2017-10-21T11:19:15.327Z,66.90
2017-10-21T11:21:42.790Z,67.90
2017-10-21T11:24:10.298Z,67.10
2017-10-21T11:26:37.797Z,66.80
2017-10-21T11:29:05.255Z,66.40
2017-10-21T11:31:32.745Z,65.90
2017-10-21T11:34:00.208Z,65.60
2017-10-21T11:36:27.670Z,65.90
2017-10-21T11:38:55.352Z,64.60
2017-10-21T11:41:22.987Z,64.70
2017-10-21T11:43:51.022Z,64.60
2017-10-21T11:46:18.651Z,64.50
2017-10-21T11:48:46.861Z,64.40
2017-10-21T11:51:14.455Z,63.90
2017-10-21T11:53:42.006Z,63.40
2017-10-21T11:56:10.447Z,63.10
2017-10-21T11:58:38.079Z,63.00
2017-10-21T12:01:05.742Z,63.40
2017-10-21T12:03:33.342Z,63.70
2017-10-21T12:06:00.909Z,63.70
2017-10-21T12:08:29.466Z,63.70
2017-10-21T12:10:56.989Z,63.70
2017-10-21T12:13:24.653Z,63.80
2017-10-21T12:15:52.175Z,63.60
2017-10-21T12:18:19.666Z,63.40
2017-10-21T12:20:48.960Z,63.60
2017-10-21T12:23:16.442Z,63.50
2017-10-21T12:25:44.904Z,63.40
2017-10-21T12:28:12.835Z,63.20
2017-10-21T12:30:40.489Z,63.20
2017-10-21T12:33:08.137Z,63.20
2017-10-21T12:35:35.886Z,63.40
2017-10-21T12:38:03.642Z,63.50
2017-10-21T12:40:31.891Z,63.20
2017-10-21T12:42:59.538Z,63.20
2017-10-21T12:45:27.081Z,63.30
2017-10-21T12:47:55.514Z,63.20
2017-10-21T12:50:23.007Z,63.10
2017-10-21T12:52:50.552Z,62.90
2017-10-21T12:55:18.315Z,62.80
2017-10-21T12:57:47.018Z,61.90
2017-10-21T13:00:14.897Z,61.80
2017-10-21T13:02:42.357Z,61.00
2017-10-21T13:05:11.088Z,60.80
2017-10-21T13:07:38.949Z,59.90
2017-10-21T13:10:06.457Z,59.50
2017-10-21T13:12:34.264Z,59.70
2017-10-21T13:15:02.062Z,59.10
2017-10-21T13:17:29.654Z,58.60
2017-10-21T13:19:57.130Z,58.90
2017-10-21T13:22:24.882Z,58.70
2017-10-21T13:24:53.181Z,57.30
2017-10-21T13:27:20.922Z,57.20
2017-10-21T13:29:48.289Z,56.60
2017-10-21T13:32:15.761Z,57.30
2017-10-21T13:34:43.683Z,53.20
2017-10-21T13:37:11.412Z,50.70
2017-10-21T13:39:39.701Z,45.80
2017-10-21T13:42:08.105Z,41.80
2017-10-21T13:44:35.582Z,41.60
2017-10-21T13:47:03.821Z,37.60
2017-10-21T13:49:31.532Z,37.50
2017-10-21T13:51:59.315Z,37.40
2017-10-21T13:54:26.800Z,36.20
2017-10-21T13:56:54.283Z,33.60
2017-10-21T13:59:21.834Z,33.40
2017-10-21T14:01:49.310Z,33.50
2017-10-21T14:04:16.779Z,33.20
2017-10-21T14:06:44.294Z,31.50
2017-10-21T14:09:12.527Z,30.00
2017-10-21T14:11:40.169Z,29.90
2017-10-21T14:14:07.702Z,30.00
2017-10-21T14:16:35.929Z,29.60
2017-10-21T14:19:03.413Z,29.60
2017-10-21T14:21:30.899Z,29.80
2017-10-21T14:23:59.148Z,29.30
2017-10-21T14:26:26.621Z,29.30
2017-10-21T14:28:54.911Z,29.70
2017-10-21T14:31:24.089Z,30.00
2017-10-21T14:33:51.543Z,29.50
2017-10-21T14:36:18.994Z,29.40
2017-10-21T14:38:46.482Z,29.00
2017-10-21T14:41:13.946Z,29.30
2017-10-21T14:43:41.429Z,29.50
2017-10-21T14:46:08.915Z,29.60
2017-10-21T14:48:36.371Z,30.20
2017-10-21T14:51:03.846Z,29.80
2017-10-21T14:53:31.305Z,30.00
2017-10-21T14:55:58.803Z,29.80
2017-10-21T14:58:26.278Z,30.70
2017-10-21T15:00:53.994Z,31.80
2017-10-21T15:03:21.465Z,32.90
2017-10-21T15:05:49.707Z,34.50
2017-10-21T15:08:17.190Z,34.50
2017-10-21T15:10:44.641Z,35.10
2017-10-21T15:13:12.098Z,35.70
2017-10-21T15:15:39.578Z,36.20
2017-10-21T15:18:07.797Z,36.80
2017-10-21T15:20:35.279Z,36.80
2017-10-21T15:23:02.742Z,37.20
2017-10-21T15:25:30.230Z,36.60
2017-10-21T15:27:57.682Z,36.90
2017-10-21T15:30:25.138Z,37.20
2017-10-21T15:32:52.609Z,37.60
2017-10-21T15:35:20.098Z,38.20
2017-10-21T15:37:47.604Z,38.50
2017-10-21T15:40:15.834Z,39.70
2017-10-21T15:42:43.286Z,39.60
2017-10-21T15:45:10.762Z,39.80
2017-10-21T15:47:38.295Z,39.90
2017-10-21T15:50:05.833Z,40.60
2017-10-21T15:52:33.615Z,41.20
2017-10-21T15:55:01.105Z,41.60
2017-10-21T15:57:28.775Z,42.00
2017-10-21T15:59:56.276Z,42.30
2017-10-21T16:02:23.978Z,42.70
2017-10-21T16:04:51.781Z,43.00
2017-10-21T16:07:19.253Z,43.30
2017-10-21T16:09:47.703Z,43.90
2017-10-21T16:12:15.189Z,43.90
2017-10-21T16:14:42.673Z,44.30
2017-10-21T16:17:10.279Z,44.50
2017-10-21T16:19:38.134Z,44.80
2017-10-21T16:22:05.581Z,45.40
2017-10-21T16:24:33.063Z,45.40
2017-10-21T16:27:00.554Z,45.70
2017-10-21T16:29:28.007Z,46.00
2017-10-21T16:31:55.605Z,46.20
2017-10-21T16:34:23.087Z,46.50
2017-10-21T16:36:50.541Z,46.70
2017-10-21T16:39:18.015Z,46.80
2017-10-21T16:41:45.493Z,46.90
2017-10-21T16:44:12.977Z,47.00
2017-10-21T16:46:41.209Z,47.50
2017-10-21T16:49:09.186Z,47.50
2017-10-21T16:51:36.873Z,47.80
2017-10-21T16:54:05.408Z,48.30
2017-10-21T16:56:32.910Z,48.30
2017-10-21T16:59:00.599Z,48.40
2017-10-21T17:01:28.525Z,48.60
2017-10-21T17:03:56.226Z,48.80
2017-10-21T17:06:24.743Z,49.00
2017-10-21T17:08:52.262Z,49.00
2017-10-21T17:11:20.687Z,48.90
2017-10-21T17:13:48.162Z,48.90
2017-10-21T17:16:16.025Z,48.80
2017-10-21T17:18:43.691Z,49.00
2017-10-21T17:21:11.354Z,49.40
2017-10-21T17:23:38.954Z,49.70
2017-10-21T17:26:06.450Z,50.00
2017-10-21T17:28:33.918Z,50.40
2017-10-21T17:31:01.693Z,50.60
2017-10-21T17:33:30.109Z,51.20
2017-10-21T17:35:57.873Z,51.20
2017-10-21T17:38:25.712Z,51.20
2017-10-21T17:40:54.563Z,51.40
2017-10-21T17:43:22.436Z,51.40
2017-10-21T17:45:50.279Z,51.30
2017-10-21T17:48:17.924Z,52.10
2017-10-21T17:50:45.651Z,51.50
2017-10-21T17:53:13.349Z,51.50
2017-10-21T17:55:41.816Z,51.70
2017-10-21T17:58:09.343Z,52.20
2017-10-21T18:00:36.868Z,51.80
2017-10-21T18:03:05.420Z,51.90
2017-10-21T18:05:32.947Z,51.90
2017-10-21T18:08:00.454Z,51.90
2017-10-21T18:10:29.390Z,52.00
2017-10-21T18:12:58.028Z,52.00
2017-10-21T18:15:25.694Z,52.00
2017-10-21T18:17:53.321Z,51.80
2017-10-21T18:20:20.778Z,51.80
2017-10-21T18:22:48.271Z,51.80
2017-10-21T18:25:15.725Z,52.00
2017-10-21T18:27:43.361Z,52.30
2017-10-21T18:30:10.826Z,52.80
2017-10-21T18:32:38.480Z,54.00
2017-10-21T18:35:06.048Z,54.10
2017-10-21T18:37:33.598Z,54.80
2017-10-21T18:40:01.323Z,55.50
2017-10-21T18:42:28.906Z,56.00
2017-10-21T18:44:56.493Z,56.20
2017-10-21T18:47:23.961Z,56.20
2017-10-21T18:49:51.785Z,56.40
2017-10-21T18:52:19.315Z,56.30
2017-10-21T18:54:46.929Z,56.40
2017-10-21T18:57:14.409Z,56.60
2017-10-21T18:59:43.019Z,56.70
2017-10-21T19:02:11.222Z,56.50
2017-10-21T19:04:39.027Z,56.10
2017-10-21T19:07:07.453Z,57.40
2017-10-21T19:09:36.259Z,57.40
2017-10-21T19:12:03.996Z,58.10
2017-10-21T19:14:31.726Z,59.00
2017-10-21T19:16:59.273Z,59.80
2017-10-21T19:19:26.813Z,60.40
2017-10-21T19:21:54.609Z,60.80
2017-10-21T19:24:22.191Z,61.20
2017-10-21T19:26:49.713Z,61.60
2017-10-21T19:29:17.879Z,62.00
2017-10-21T19:31:45.530Z,62.10
2017-10-21T19:34:13.176Z,62.20
2017-10-21T19:36:40.942Z,62.60
2017-10-21T19:39:08.426Z,62.70
2017-10-21T19:41:35.888Z,62.80
2017-10-21T19:44:03.756Z,62.90
2017-10-21T19:46:31.400Z,63.20
2017-10-21T19:48:58.875Z,63.20
2017-10-21T19:51:26.767Z,63.30
2017-10-21T19:53:54.299Z,63.30
2017-10-21T19:56:22.171Z,63.50
2017-10-21T19:58:49.676Z,63.70
2017-10-21T20:01:17.154Z,63.80
2017-10-21T20:03:45.833Z,63.80
2017-10-21T20:06:13.349Z,63.80
2017-10-21T20:08:41.120Z,64.00
2017-10-21T20:11:08.620Z,63.90
2017-10-21T20:13:37.964Z,63.60
2017-10-21T20:16:05.650Z,63.60
2017-10-21T20:18:33.114Z,63.40
2017-10-21T20:21:00.581Z,63.30
2017-10-21T20:23:28.057Z,63.20
2017-10-21T20:25:55.530Z,63.40
2017-10-21T20:28:22.981Z,63.40
2017-10-21T20:30:51.440Z,63.60
2017-10-21T20:33:19.163Z,63.60
2017-10-21T20:35:46.667Z,63.60
2017-10-21T20:38:14.157Z,63.70
2017-10-21T20:40:41.610Z,63.90
2017-10-21T20:43:09.831Z,64.10
2017-10-21T20:45:37.314Z,64.10
2017-10-21T20:48:04.771Z,64.20
2017-10-21T20:50:32.261Z,64.50
2017-10-21T20:52:59.854Z,64.70
2017-10-21T20:55:27.335Z,64.80
2017-10-21T20:57:54.821Z,64.90
2017-10-21T21:00:23.120Z,65.10
2017-10-21T21:02:50.582Z,65.00
2017-10-21T21:05:18.089Z,65.10
2017-10-21T21:07:45.582Z,65.20
2017-10-21T21:10:13.046Z,65.30
2017-10-21T21:12:40.522Z,65.50
2017-10-21T21:15:08.002Z,65.50
2017-10-21T21:17:35.454Z,65.40
2017-10-21T21:20:02.934Z,65.40
2017-10-21T21:22:31.202Z,65.50
2017-10-21T21:24:58.689Z,65.50
2017-10-21T21:27:26.150Z,65.50
2017-10-21T21:29:53.817Z,65.50
2017-10-21T21:32:22.058Z,65.50
2017-10-21T21:34:50.278Z,65.50
2017-10-21T21:37:17.754Z,65.50
2017-10-21T21:39:45.241Z,65.50
2017-10-21T21:42:12.821Z,65.40
2017-10-21T21:44:40.298Z,65.40
2017-10-21T21:47:07.774Z,65.30
2017-10-21T21:49:35.258Z,65.50
2017-10-21T21:52:02.728Z,65.50
2017-10-21T21:54:31.105Z,65.50
2017-10-21T21:56:58.584Z,65.60
2017-10-21T21:59:26.042Z,65.50
2017-10-21T22:01:53.529Z,65.50
2017-10-21T22:04:20.993Z,65.70
2017-10-21T22:06:48.457Z,65.50
2017-10-21T22:09:16.899Z,65.20
2017-10-21T22:11:44.397Z,65.10
2017-10-21T22:14:12.371Z,65.00
2017-10-21T22:16:39.900Z,64.80
2017-10-21T22:19:07.358Z,64.60
2017-10-21T22:21:34.825Z,64.30
2017-10-21T22:24:02.302Z,64.10
2017-10-21T22:26:29.765Z,63.90
2017-10-21T22:28:57.341Z,63.80
2017-10-21T22:31:24.797Z,64.40
2017-10-21T22:33:52.255Z,63.40
2017-10-21T22:36:19.725Z,63.30
2017-10-21T22:38:47.204Z,63.10
2017-10-21T22:41:14.690Z,63.00
2017-10-21T22:43:42.152Z,62.80
2017-10-21T22:46:09.610Z,62.70
2017-10-21T22:48:37.097Z,62.80
2017-10-21T22:51:04.905Z,62.50
2017-10-21T22:53:32.421Z,62.50
2017-10-21T22:55:59.878Z,62.10
2017-10-21T22:58:28.122Z,61.50
2017-10-21T23:00:55.586Z,61.50
2017-10-21T23:03:23.073Z,61.20
2017-10-21T23:05:51.309Z,60.80
2017-10-21T23:08:18.765Z,60.80
2017-10-21T23:10:46.230Z,60.70
2017-10-21T23:13:13.693Z,60.50
2017-10-21T23:15:41.158Z,60.50
2017-10-21T23:18:08.614Z,60.30
2017-10-21T23:20:36.211Z,60.10
2017-10-21T23:23:03.666Z,60.00
2017-10-21T23:25:31.149Z,60.00
2017-10-21T23:27:58.641Z,60.00
2017-10-21T23:30:26.102Z,59.90
2017-10-21T23:32:53.561Z,59.80
2017-10-21T23:35:21.039Z,59.70
2017-10-21T23:37:48.521Z,59.70
2017-10-21T23:40:16.009Z,59.80
2017-10-21T23:42:43.454Z,59.70
2017-10-21T23:45:10.936Z,59.70
2017-10-21T23:47:38.418Z,59.70
2017-10-21T23:50:05.936Z,59.70
2017-10-21T23:52:33.621Z,59.70
2017-10-21T23:55:01.069Z,59.60
2017-10-21T23:57:28.537Z,59.60
2017-10-21T23:59:56.003Z,59.60
